Archival Weather

Bob Hope

Burbank, California (KBUR)

Report from: Monday, January 29, 2024 11:53 AM PST
Current time: Monday, June 24, 2024 4:37 AM PDT

Current weather – Weather history – Daily summaries
Weather forecast

Temperature23.9°C (75.0°F)
Dew point1.7°C (35.1°F)
Winds 4 kts (2.1 m/s, 4.6 mph) Southwest (220°)
Visibility10 mi. (16.1 km)
Clouds Sky clear
Altimeter30.10 in.Hg (1019 mB)
Relative humidity23 %
Density altitude971 ft. (296 m)
Sea-level pressure101.8 kPa (1018 mB, 30.07 in.Hg)
Remarks Automated weather observing station with precipitation discriminator
Flight conditions Visual Meteorological Conditions
Raw dataKBUR 291953Z 22004KT 10SM CLR 24/02 A3010 RMK AO2 SLP183 T02390017
An error has occurred. This application may no longer respond until reloaded. Reload 🗙